Time;durP1;ratioP1;P1;durP2;ratioP2;P2;SDS_P1;SDS_P2;PMS_P1;PMS_P2;Temp;Humidity;BMP_temperature;BMP_pressure;BME280_temperature;BME280_humidity;BME280_pressure;Samples;Min_cycle;Max_cycle;Signal;HPM_P1;HPM_P2
2024/02/27 00:02:18;;;;;;;11.80;6.07;;;8.90;85.30;;;;;;4956042;28;20518;-88
2024/02/27 00:04:45;;;;;;;10.43;5.97;;;8.90;85.50;;;;;;4964101;28;20023;-90
2024/02/27 00:07:14;;;;;;;8.68;6.40;;;8.90;85.60;;;;;;4975016;28;20048;-90
2024/02/27 00:09:47;;;;;;;9.70;5.53;;;8.90;85.50;;;;;;5006502;28;20021;-88
2024/02/27 00:12:12;;;;;;;11.25;6.22;;;8.90;85.70;;;;;;4967940;28;20027;-88
2024/02/27 00:14:38;;;;;;;8.35;5.07;;;8.80;86.10;;;;;;5016751;28;20389;-86
2024/02/27 00:17:04;;;;;;;9.82;7.07;;;8.90;86.20;;;;;;5013598;28;20121;-89
2024/02/27 00:19:31;;;;;;;10.15;5.40;;;8.80;86.70;;;;;;4954748;28;20073;-89
2024/02/27 00:21:56;;;;;;;9.93;6.10;;;8.80;86.10;;;;;;4956377;28;20020;-89
2024/02/27 00:24:22;;;;;;;9.27;6.53;;;8.80;87.00;;;;;;4969531;28;20049;-89
2024/02/27 00:26:48;;;;;;;8.90;5.32;;;8.80;86.10;;;;;;5017477;28;20490;-90
2024/02/27 00:29:13;;;;;;;10.82;6.22;;;8.80;86.10;;;;;;5013493;28;20478;-89
2024/02/27 00:31:39;;;;;;;9.20;6.00;;;8.80;86.10;;;;;;4958038;28;20034;-88
2024/02/27 00:34:05;;;;;;;11.18;5.85;;;8.90;86.30;;;;;;4991541;28;20059;-88
2024/02/27 00:36:33;;;;;;;8.38;5.80;;;8.80;86.00;;;;;;4993090;28;20432;-88
2024/02/27 00:38:59;;;;;;;7.13;5.22;;;8.80;86.40;;;;;;4969797;28;20034;-90
2024/02/27 00:41:24;;;;;;;10.48;6.25;;;8.80;86.80;;;;;;5006878;28;20040;-89
2024/02/27 00:43:50;;;;;;;10.25;5.75;;;8.80;87.30;;;;;;4994562;28;20046;-89
2024/02/27 00:46:16;;;;;;;10.52;5.88;;;8.80;87.60;;;;;;5013737;28;20647;-88
2024/02/27 00:48:41;;;;;;;10.63;6.47;;;8.80;88.20;;;;;;5018219;28;20024;-88
2024/02/27 00:51:07;;;;;;;9.90;6.80;;;8.80;88.90;;;;;;4996041;28;20021;-88
2024/02/27 00:53:33;;;;;;;10.98;5.78;;;8.80;89.20;;;;;;5003562;28;20031;-89
2024/02/27 00:55:58;;;;;;;11.02;7.10;;;8.80;89.20;;;;;;4978617;28;20027;-88
2024/02/27 00:58:24;;;;;;;10.55;6.65;;;8.80;89.30;;;;;;4978564;28;20037;-88
2024/02/27 01:00:49;;;;;;;11.20;6.22;;;8.80;89.50;;;;;;5011658;28;20485;-88
2024/02/27 01:03:15;;;;;;;10.98;7.20;;;8.80;89.80;;;;;;4978743;28;20023;-88
2024/02/27 01:05:41;;;;;;;12.77;7.45;;;8.80;89.90;;;;;;5021208;28;20026;-89
2024/02/27 01:08:07;;;;;;;10.95;6.05;;;8.80;90.20;;;;;;5012784;28;20105;-89
2024/02/27 01:10:32;;;;;;;12.90;8.88;;;8.80;90.50;;;;;;5012411;28;20154;-88
2024/02/27 01:12:58;;;;;;;14.52;6.95;;;8.80;91.00;;;;;;5012698;28;20058;-88
2024/02/27 01:15:23;;;;;;;10.32;6.63;;;8.70;91.20;;;;;;5006266;28;20036;-89
2024/02/27 01:17:49;;;;;;;11.93;6.40;;;8.70;91.50;;;;;;4974894;28;20035;-89
2024/02/27 01:20:15;;;;;;;9.93;6.80;;;8.70;91.70;;;;;;4978135;28;20489;-89
2024/02/27 01:22:41;;;;;;;8.95;5.65;;;8.70;92.30;;;;;;5009731;28;20078;-88
2024/02/27 01:25:08;;;;;;;9.30;5.88;;;8.70;93.00;;;;;;5022722;28;20023;-87
2024/02/27 01:27:34;;;;;;;10.07;6.50;;;8.60;93.50;;;;;;5012009;28;20043;-91
2024/02/27 01:29:59;;;;;;;14.00;7.32;;;8.60;93.70;;;;;;5002182;28;20030;-87
2024/02/27 01:32:25;;;;;;;12.82;8.02;;;8.60;94.10;;;;;;5006691;28;20025;-90
2024/02/27 01:34:51;;;;;;;13.93;7.45;;;8.60;93.90;;;;;;5033613;28;20024;-87
2024/02/27 01:37:16;;;;;;;10.27;8.02;;;8.60;94.10;;;;;;4977224;28;20037;-88
2024/02/27 01:39:42;;;;;;;13.93;7.45;;;8.60;94.50;;;;;;4974450;28;20030;-89
2024/02/27 01:42:08;;;;;;;12.85;7.68;;;8.50;94.80;;;;;;4977369;28;20023;-88
2024/02/27 01:44:34;;;;;;;15.55;8.38;;;8.60;94.80;;;;;;5013152;28;20080;-88
2024/02/27 01:47:00;;;;;;;17.35;7.65;;;8.50;95.70;;;;;;4965870;28;20121;-90
2024/02/27 01:49:27;;;;;;;13.13;8.50;;;8.50;95.20;;;;;;4958174;28;20031;-87
2024/02/27 01:51:54;;;;;;;17.05;7.97;;;8.50;95.50;;;;;;5023369;28;20026;-91
2024/02/27 01:54:26;;;;;;;15.18;8.23;;;8.50;95.50;;;;;;5037944;28;20021;-89
2024/02/27 01:56:53;;;;;;;13.88;7.63;;;8.50;95.60;;;;;;5024454;28;20051;-88
2024/02/27 01:59:21;;;;;;;11.82;8.60;;;8.40;95.90;;;;;;5001800;28;20044;-89
2024/02/27 02:01:50;;;;;;;10.93;7.03;;;8.40;96.30;;;;;;4985347;28;20042;-89
2024/02/27 02:04:16;;;;;;;12.50;7.50;;;8.40;96.70;;;;;;5020915;28;20049;-88
2024/02/27 02:06:43;;;;;;;11.73;7.82;;;8.40;96.60;;;;;;4978056;28;20022;-90
2024/02/27 02:09:08;;;;;;;13.65;7.72;;;8.40;97.10;;;;;;5016389;28;20094;-88
2024/02/27 02:11:35;;;;;;;15.10;7.80;;;8.40;96.90;;;;;;4957822;28;20576;-88
2024/02/27 02:14:02;;;;;;;14.07;8.68;;;8.40;96.60;;;;;;4975685;28;20080;-86
2024/02/27 02:16:27;;;;;;;11.23;8.15;;;8.30;96.90;;;;;;5002170;28;20028;-91
2024/02/27 02:18:53;;;;;;;12.40;8.27;;;8.30;97.10;;;;;;5020478;28;20515;-87
2024/02/27 02:21:19;;;;;;;13.77;7.82;;;8.20;97.00;;;;;;5011595;28;20019;-88
2024/02/27 02:23:45;;;;;;;12.93;8.30;;;8.20;97.10;;;;;;5011962;28;20026;-88
2024/02/27 02:26:11;;;;;;;12.82;8.23;;;8.20;97.40;;;;;;4984522;28;20021;-90
2024/02/27 02:28:37;;;;;;;13.82;7.75;;;8.10;97.90;;;;;;5031738;28;20020;-89
2024/02/27 02:31:03;;;;;;;13.48;8.23;;;8.20;98.00;;;;;;5024276;28;20035;-89
2024/02/27 02:33:29;;;;;;;14.07;8.93;;;8.20;98.00;;;;;;4968806;28;20060;-88
2024/02/27 02:35:54;;;;;;;14.75;8.02;;;8.10;98.10;;;;;;4976308;28;20030;-89
2024/02/27 02:38:20;;;;;;;15.98;9.77;;;8.10;98.30;;;;;;4976785;28;20031;-87
2024/02/27 02:40:46;;;;;;;18.05;9.00;;;8.10;98.10;;;;;;5051679;28;20437;-89
2024/02/27 02:43:11;;;;;;;14.95;7.97;;;8.10;98.00;;;;;;5015604;28;20024;-88
2024/02/27 02:45:39;;;;;;;20.27;9.52;;;8.00;98.40;;;;;;4957987;28;20393;-88
2024/02/27 02:48:05;;;;;;;15.68;9.18;;;7.80;98.60;;;;;;4969136;28;20031;-87
2024/02/27 02:50:31;;;;;;;19.60;9.73;;;7.80;99.10;;;;;;5019551;28;20023;-87
2024/02/27 02:52:57;;;;;;;13.90;8.52;;;7.80;99.50;;;;;;4978049;28;20027;-88
2024/02/27 02:55:23;;;;;;;21.35;9.95;;;7.70;99.90;;;;;;4997254;28;20032;-89
2024/02/27 02:57:48;;;;;;;20.52;10.05;;;7.60;99.90;;;;;;4987779;28;20121;-89
2024/02/27 03:00:14;;;;;;;20.15;10.68;;;7.60;99.90;;;;;;4996610;28;20564;-88
2024/02/27 03:02:40;;;;;;;22.52;11.13;;;7.50;99.90;;;;;;4989033;28;20106;-89
2024/02/27 03:05:06;;;;;;;21.80;11.00;;;7.50;99.90;;;;;;5010594;28;20106;-88
2024/02/27 03:07:32;;;;;;;22.95;11.90;;;7.40;99.90;;;;;;5012416;28;20131;-89
2024/02/27 03:09:57;;;;;;;20.60;10.52;;;7.40;99.90;;;;;;4982818;28;20080;-90
2024/02/27 03:12:23;;;;;;;25.13;11.32;;;7.40;99.90;;;;;;4995830;28;20030;-88
2024/02/27 03:14:49;;;;;;;22.83;11.50;;;7.30;99.90;;;;;;4976720;28;20027;-88
2024/02/27 03:17:15;;;;;;;24.05;12.05;;;7.30;99.90;;;;;;5002659;28;20036;-88
2024/02/27 03:19:42;;;;;;;25.15;12.05;;;7.30;99.90;;;;;;4964384;28;20042;-87
2024/02/27 03:22:09;;;;;;;24.38;12.93;;;7.20;99.90;;;;;;5016174;28;20024;-89
2024/02/27 03:24:38;;;;;;;29.23;13.82;;;7.20;99.90;;;;;;4975827;28;20018;-87
2024/02/27 03:27:04;;;;;;;29.00;13.85;;;7.20;99.90;;;;;;5061236;28;20044;-90
2024/02/27 03:29:31;;;;;;;29.85;12.93;;;7.20;99.90;;;;;;4990200;28;20034;-88
2024/02/27 03:31:56;;;;;;;33.05;13.95;;;7.10;99.90;;;;;;4969790;28;20011;-90
2024/02/27 03:34:24;;;;;;;34.88;14.85;;;7.10;99.90;;;;;;4975972;28;20543;-88
2024/02/27 03:36:49;;;;;;;33.65;14.35;;;7.10;99.90;;;;;;5009739;28;20098;-89
2024/02/27 03:39:15;;;;;;;36.70;16.08;;;7.00;99.90;;;;;;4973809;28;20108;-89
2024/02/27 03:41:41;;;;;;;37.38;16.48;;;7.00;99.90;;;;;;5076282;28;20076;-89
2024/02/27 03:44:06;;;;;;;36.17;15.90;;;7.00;99.90;;;;;;4975290;28;20027;-89
2024/02/27 03:46:33;;;;;;;34.20;15.00;;;7.00;99.90;;;;;;5018732;28;20054;-88
2024/02/27 03:48:59;;;;;;;31.52;14.52;;;7.00;99.90;;;;;;4975660;28;20110;-89
2024/02/27 03:51:25;;;;;;;34.00;16.08;;;6.90;99.90;;;;;;4974725;28;20080;-92
2024/02/27 03:53:50;;;;;;;33.40;14.23;;;7.00;99.90;;;;;;5018884;28;20026;-88
2024/02/27 03:56:16;;;;;;;32.55;14.52;;;7.00;99.90;;;;;;5014517;28;20031;-89
2024/02/27 03:58:41;;;;;;;35.05;16.23;;;7.00;99.90;;;;;;4963893;28;20027;-88
2024/02/27 04:01:07;;;;;;;35.78;16.65;;;7.00;99.90;;;;;;4975488;28;20031;-89
2024/02/27 04:03:33;;;;;;;33.55;16.23;;;7.00;99.90;;;;;;5018205;28;20179;-88
2024/02/27 04:05:58;;;;;;;32.22;15.05;;;7.00;99.90;;;;;;5017468;28;20540;-89
2024/02/27 04:08:24;;;;;;;33.38;15.68;;;7.00;99.90;;;;;;4967027;28;20607;-89
2024/02/27 04:10:50;;;;;;;31.77;15.10;;;7.00;99.90;;;;;;5009846;28;20038;-88
2024/02/27 04:13:15;;;;;;;30.55;14.60;;;7.00;99.90;;;;;;5039453;28;20146;-87
2024/02/27 04:15:41;;;;;;;36.78;16.90;;;7.00;99.90;;;;;;5034569;28;20044;-90
2024/02/27 04:18:07;;;;;;;39.58;17.42;;;7.00;99.90;;;;;;5016886;28;20034;-88
2024/02/27 04:20:33;;;;;;;38.55;16.00;;;6.90;99.90;;;;;;5003635;28;20032;-89
2024/02/27 04:22:59;;;;;;;38.00;17.63;;;7.00;99.90;;;;;;5066242;28;20028;-89
2024/02/27 04:25:24;;;;;;;35.08;17.10;;;7.00;99.90;;;;;;4985982;28;20059;-87
2024/02/27 04:27:50;;;;;;;34.40;16.15;;;7.10;99.90;;;;;;4973358;28;20046;-89
2024/02/27 04:30:16;;;;;;;36.03;16.30;;;7.20;99.90;;;;;;5000816;28;20032;-89
2024/02/27 04:32:43;;;;;;;33.22;16.88;;;7.10;99.90;;;;;;4971785;28;20082;-88
2024/02/27 04:35:09;;;;;;;34.00;15.48;;;7.10;99.90;;;;;;4975904;28;20050;-88
2024/02/27 04:37:34;;;;;;;34.85;15.40;;;7.20;99.90;;;;;;5062951;28;20031;-89
2024/02/27 04:40:00;;;;;;;31.55;15.43;;;7.20;99.90;;;;;;4974414;28;20082;-89
2024/02/27 04:42:25;;;;;;;31.13;15.60;;;7.20;99.90;;;;;;4975257;28;20026;-90
2024/02/27 04:44:51;;;;;;;39.92;17.67;;;7.20;99.90;;;;;;5071368;28;20027;-89
2024/02/27 04:47:16;;;;;;;33.92;17.40;;;7.20;99.90;;;;;;5049730;28;20440;-90
2024/02/27 04:49:42;;;;;;;40.78;19.02;;;7.10;99.90;;;;;;4971646;28;20114;-87
2024/02/27 04:52:08;;;;;;;41.22;18.98;;;7.10;99.90;;;;;;4975748;28;20102;-89
2024/02/27 04:54:36;;;;;;;38.75;19.45;;;7.10;99.90;;;;;;5017067;28;20045;-89
2024/02/27 04:57:02;;;;;;;42.05;20.13;;;7.10;99.90;;;;;;4967005;28;20090;-88
2024/02/27 04:59:28;;;;;;;43.42;21.08;;;7.00;99.90;;;;;;5016079;28;20452;-89
2024/02/27 05:01:53;;;;;;;44.95;20.77;;;7.10;99.90;;;;;;5008591;28;20031;-89
2024/02/27 05:04:19;;;;;;;40.38;20.90;;;7.10;99.90;;;;;;5022936;28;20098;-88
2024/02/27 05:06:45;;;;;;;43.20;18.83;;;7.10;99.90;;;;;;5031923;28;20024;-89
2024/02/27 05:09:10;;;;;;;43.75;19.58;;;7.10;99.90;;;;;;5005958;28;20023;-88
2024/02/27 05:11:36;;;;;;;51.03;21.75;;;7.00;99.90;;;;;;4958210;28;20098;-88
2024/02/27 05:14:02;;;;;;;57.13;26.75;;;7.00;99.90;;;;;;4970927;28;20055;-89
2024/02/27 05:16:27;;;;;;;49.80;23.55;;;7.00;99.90;;;;;;5009895;28;20020;-89
2024/02/27 05:18:53;;;;;;;51.90;23.08;;;7.00;99.90;;;;;;4975283;28;20039;-89
2024/02/27 05:21:20;;;;;;;56.80;25.77;;;7.00;99.90;;;;;;4978346;28;20027;-86
2024/02/27 05:23:46;;;;;;;46.72;23.20;;;6.90;99.90;;;;;;5012678;28;20031;-89
2024/02/27 05:26:12;;;;;;;52.25;24.85;;;6.90;99.90;;;;;;5072565;28;20024;-86
2024/02/27 05:28:38;;;;;;;50.30;22.23;;;6.90;99.90;;;;;;4994097;28;20031;-86
2024/02/27 05:31:26;;;;;;;56.17;25.75;;;6.90;99.90;;;;;;4961171;28;20517;-89
2024/02/27 05:33:56;;;;;;;52.80;23.40;;;6.80;99.90;;;;;;5062403;28;20092;-89
2024/02/27 05:36:23;;;;;;;48.33;21.13;;;6.90;99.90;;;;;;4978164;28;20095;-88
2024/02/27 05:38:56;;;;;;;51.22;22.80;;;6.80;99.90;;;;;;5022309;28;20064;-87
2024/02/27 05:41:22;;;;;;;54.05;23.65;;;6.80;99.90;;;;;;5036509;28;20027;-89
2024/02/27 05:43:48;;;;;;;56.10;28.50;;;6.90;99.90;;;;;;5033410;28;20020;-89
2024/02/27 05:46:14;;;;;;;53.67;23.55;;;6.80;99.90;;;;;;4997973;28;20040;-89
2024/02/27 05:48:41;;;;;;;62.05;30.25;;;6.80;99.90;;;;;;4984229;28;20027;-89
2024/02/27 05:51:06;;;;;;;50.08;22.55;;;6.80;99.90;;;;;;4958851;28;20039;-88
2024/02/27 05:53:33;;;;;;;57.95;27.25;;;6.90;99.90;;;;;;5006894;28;20399;-88
2024/02/27 05:55:59;;;;;;;56.15;24.67;;;6.80;99.90;;;;;;5026184;28;20661;-88
2024/02/27 05:58:25;;;;;;;63.53;24.98;;;6.90;99.90;;;;;;4964773;28;20027;-88
2024/02/27 06:00:51;;;;;;;57.10;25.63;;;6.80;99.90;;;;;;4967435;28;20106;-85
2024/02/27 06:03:17;;;;;;;55.90;24.35;;;6.80;99.90;;;;;;4962822;28;20027;-89
2024/02/27 06:05:44;;;;;;;61.22;24.92;;;6.70;99.90;;;;;;4976868;28;20062;-91
2024/02/27 06:08:09;;;;;;;62.55;27.58;;;6.80;99.90;;;;;;4991632;28;20024;-88
2024/02/27 06:10:35;;;;;;;60.10;26.08;;;6.70;99.90;;;;;;5066564;28;20024;-88
2024/02/27 06:13:01;;;;;;;57.63;26.52;;;6.80;99.90;;;;;;4973797;28;20027;-88
2024/02/27 06:15:27;;;;;;;54.67;24.65;;;6.80;99.90;;;;;;4975863;28;20392;-88
2024/02/27 06:17:53;;;;;;;79.18;35.45;;;6.80;99.90;;;;;;4997644;28;20505;-88
2024/02/27 06:23:03;;;;;;;65.28;28.58;;;6.70;99.90;;;;;;4994316;28;20034;-88
2024/02/27 06:25:29;;;;;;;51.45;24.48;;;6.70;99.90;;;;;;4992697;28;20032;-88
2024/02/27 06:27:55;;;;;;;55.33;24.48;;;6.70;99.90;;;;;;4965894;28;20024;-89
2024/02/27 06:30:21;;;;;;;56.58;24.38;;;6.70;99.90;;;;;;4995690;28;20025;-87
2024/02/27 06:32:46;;;;;;;53.63;24.10;;;6.70;99.90;;;;;;4990440;28;20023;-89
2024/02/27 06:35:12;;;;;;;60.35;25.77;;;6.70;99.90;;;;;;5059028;28;20484;-86
2024/02/27 06:37:39;;;;;;;52.80;24.02;;;6.70;99.90;;;;;;5028064;28;20075;-89
2024/02/27 06:40:06;;;;;;;59.97;25.15;;;6.70;99.90;;;;;;5061047;28;20029;-88
2024/02/27 06:42:36;;;;;;;64.15;23.85;;;6.60;99.90;;;;;;5077517;28;20041;-88
2024/02/27 06:45:03;;;;;;;62.28;25.52;;;6.60;99.90;;;;;;5019293;28;20113;-88
2024/02/27 06:47:28;;;;;;;58.17;26.33;;;6.70;99.90;;;;;;4977335;28;20022;-86
2024/02/27 06:49:58;;;;;;;54.97;24.13;;;6.60;99.90;;;;;;5019173;28;20017;-87
2024/02/27 06:52:27;;;;;;;61.55;24.60;;;6.60;99.90;;;;;;4961609;28;20022;-88
2024/02/27 06:54:52;;;;;;;58.40;25.48;;;6.60;99.90;;;;;;4960242;28;20064;-87
2024/02/27 06:57:18;;;;;;;55.03;22.75;;;6.70;99.90;;;;;;4970321;28;20046;-88
2024/02/27 06:59:44;;;;;;;60.05;25.50;;;6.70;99.90;;;;;;4976945;28;20058;-89
2024/02/27 07:02:10;;;;;;;56.10;24.90;;;6.70;99.90;;;;;;4994506;28;20050;-88
2024/02/27 07:04:36;;;;;;;58.83;25.10;;;6.70;99.90;;;;;;4985608;28;20050;-89
2024/02/27 07:07:04;;;;;;;59.95;23.40;;;6.70;99.90;;;;;;4961729;28;20039;-89
2024/02/27 07:09:33;;;;;;;59.97;26.38;;;6.70;99.90;;;;;;5009237;28;20021;-89
2024/02/27 07:11:59;;;;;;;59.22;24.20;;;6.70;99.90;;;;;;4986611;28;20040;-88
2024/02/27 07:14:27;;;;;;;48.60;21.67;;;6.70;99.90;;;;;;5067444;28;20062;-89
2024/02/27 07:16:52;;;;;;;;;;;6.80;99.90;;;;;;4971780;28;20019;-88
2024/02/27 07:19:21;;;;;;;51.67;23.98;;;6.70;99.90;;;;;;5032223;28;19904;-88
2024/02/27 07:21:50;;;;;;;56.53;25.48;;;6.70;99.90;;;;;;5036067;28;20034;-88
2024/02/27 07:24:15;;;;;;;50.28;22.88;;;6.70;99.90;;;;;;4965150;28;20032;-88
2024/02/27 07:26:41;;;;;;;52.72;23.23;;;6.80;99.90;;;;;;4964829;28;20102;-89
2024/02/27 07:29:07;;;;;;;53.28;24.63;;;6.70;99.90;;;;;;5009019;28;20113;-88
2024/02/27 07:31:33;;;;;;;57.80;25.13;;;6.70;99.90;;;;;;5016122;28;20121;-88
2024/02/27 07:33:59;;;;;;;54.33;23.33;;;6.70;99.90;;;;;;5075804;28;20032;-88
2024/02/27 07:36:25;;;;;;;59.00;26.13;;;6.70;99.90;;;;;;4969872;28;20030;-88
2024/02/27 07:38:51;;;;;;;54.22;24.63;;;6.80;99.90;;;;;;4967320;28;20039;-91
2024/02/27 07:41:18;;;;;;;54.97;24.30;;;6.80;99.90;;;;;;4960909;28;20029;-87
2024/02/27 07:43:43;;;;;;;59.75;26.58;;;6.80;99.90;;;;;;5016624;28;20021;-88
2024/02/27 07:46:16;;;;;;;54.17;25.02;;;6.80;99.90;;;;;;4966187;28;20077;-87
2024/02/27 07:48:45;;;;;;;55.83;25.83;;;6.90;99.90;;;;;;4955544;28;20093;-89
2024/02/27 07:51:26;;;;;;;51.47;23.20;;;6.90;99.90;;;;;;5005608;28;20027;-89
2024/02/27 07:53:52;;;;;;;54.83;25.33;;;7.00;99.90;;;;;;4974338;28;20388;-89
2024/02/27 07:56:18;;;;;;;49.08;22.55;;;7.10;99.90;;;;;;5039738;28;20028;-88
2024/02/27 07:58:44;;;;;;;54.90;25.38;;;7.30;99.90;;;;;;4987041;28;20514;-88
2024/02/27 08:01:09;;;;;;;52.85;25.13;;;7.40;99.90;;;;;;4975129;28;20031;-89
2024/02/27 08:03:36;;;;;;;51.63;23.40;;;7.50;99.90;;;;;;5072031;28;20617;-88
2024/02/27 08:06:02;;;;;;;54.22;23.20;;;7.60;99.90;;;;;;4976763;28;20023;-89
2024/02/27 08:08:28;;;;;;;53.30;24.33;;;7.80;99.90;;;;;;5004618;28;20033;-88
2024/02/27 08:10:55;;;;;;;52.65;23.85;;;7.90;99.90;;;;;;5004958;28;20039;-89
2024/02/27 08:13:21;;;;;;;51.75;23.17;;;7.80;99.90;;;;;;4975388;28;20574;-88
2024/02/27 08:15:47;;;;;;;51.22;22.15;;;7.80;99.90;;;;;;5018383;28;20027;-89
2024/02/27 08:18:13;;;;;;;55.22;23.80;;;7.80;99.90;;;;;;5056848;28;20034;-86
2024/02/27 08:20:38;;;;;;;50.25;26.08;;;7.80;99.90;;;;;;5016871;28;20168;-87
2024/02/27 08:23:04;;;;;;;54.00;25.88;;;7.80;99.90;;;;;;5061353;28;20027;-87
2024/02/27 08:25:30;;;;;;;48.33;23.88;;;7.90;99.90;;;;;;5010705;28;20489;-88
2024/02/27 08:27:56;;;;;;;56.25;24.10;;;7.90;99.90;;;;;;4964986;28;20027;-89
2024/02/27 08:30:21;;;;;;;49.95;23.00;;;7.90;99.90;;;;;;4961668;28;20053;-88
2024/02/27 08:32:48;;;;;;;55.47;25.10;;;8.00;99.60;;;;;;4974997;28;20076;-89
2024/02/27 08:35:14;;;;;;;50.97;22.40;;;8.00;98.70;;;;;;5067736;28;20512;-86
2024/02/27 08:37:40;;;;;;;51.20;23.75;;;8.10;98.80;;;;;;5018392;28;20043;-89
2024/02/27 08:40:06;;;;;;;49.58;22.25;;;8.20;98.90;;;;;;5071742;28;20039;-89
2024/02/27 08:42:33;;;;;;;52.55;21.90;;;8.40;97.20;;;;;;4968130;28;20106;-88
2024/02/27 08:44:59;;;;;;;48.55;22.77;;;8.50;96.30;;;;;;5017985;28;20024;-89
2024/02/27 08:47:27;;;;;;;45.03;21.17;;;8.70;95.00;;;;;;5001157;28;20017;-89
2024/02/27 08:49:53;;;;;;;49.65;22.85;;;8.80;94.30;;;;;;4984449;28;20027;-88
2024/02/27 08:52:19;;;;;;;55.60;22.67;;;8.70;94.70;;;;;;5011262;28;20103;-89
2024/02/27 08:54:44;;;;;;;51.33;21.00;;;8.60;93.90;;;;;;5065215;28;20023;-88
2024/02/27 08:57:10;;;;;;;49.30;23.48;;;8.50;94.40;;;;;;4995420;28;20021;-90
2024/02/27 08:59:37;;;;;;;49.08;20.95;;;8.50;94.90;;;;;;4987686;28;20742;-89
2024/02/27 09:02:03;;;;;;;54.00;21.52;;;8.40;94.80;;;;;;4958693;28;20501;-89
2024/02/27 09:04:28;;;;;;;49.00;23.35;;;8.50;94.50;;;;;;4971934;28;20027;-89
2024/02/27 09:06:54;;;;;;;46.95;21.08;;;8.50;93.70;;;;;;4971814;28;20023;-89
2024/02/27 09:09:20;;;;;;;46.72;23.08;;;8.50;93.90;;;;;;5018255;28;20026;-89
2024/02/27 09:11:48;;;;;;;45.83;21.17;;;8.60;93.70;;;;;;5018050;28;20032;-89
2024/02/27 09:14:14;;;;;;;43.42;21.75;;;8.70;93.70;;;;;;4973562;28;20058;-89
2024/02/27 09:16:40;;;;;;;48.67;21.52;;;8.80;92.30;;;;;;4973177;28;20033;-90
2024/02/27 09:19:05;;;;;;;51.28;21.60;;;8.90;92.10;;;;;;4990876;28;20032;-88
2024/02/27 09:21:31;;;;;;;43.35;20.92;;;9.30;92.00;;;;;;5004632;28;20071;-89
2024/02/27 09:23:57;;;;;;;43.53;22.35;;;9.30;90.00;;;;;;5018703;28;20099;-88
2024/02/27 09:26:23;;;;;;;41.88;21.75;;;9.30;89.30;;;;;;5018676;28;20338;-90
2024/02/27 09:28:50;;;;;;;43.58;19.40;;;9.20;90.40;;;;;;5010289;28;20023;-89
2024/02/27 09:31:16;;;;;;;45.55;21.17;;;9.20;90.40;;;;;;4997345;28;20024;-89
2024/02/27 09:33:42;;;;;;;46.65;21.00;;;9.30;90.80;;;;;;5040099;28;20092;-88
2024/02/27 09:36:08;;;;;;;44.10;22.13;;;9.20;89.60;;;;;;4968965;28;20026;-89
2024/02/27 09:38:34;;;;;;;48.28;21.77;;;9.10;90.10;;;;;;4978491;28;20043;-90
2024/02/27 09:41:00;;;;;;;44.55;21.05;;;9.10;90.30;;;;;;5063711;28;20110;-90
2024/02/27 09:43:30;;;;;;;48.33;23.83;;;9.10;90.30;;;;;;4979274;28;20046;-89
2024/02/27 09:45:57;;;;;;;43.33;21.60;;;9.10;90.30;;;;;;5087641;28;20030;-86
2024/02/27 09:48:29;;;;;;;48.83;21.70;;;9.20;90.40;;;;;;5006673;28;20050;-89
2024/02/27 09:50:56;;;;;;;46.33;21.27;;;9.30;90.00;;;;;;4974302;28;20027;-89
2024/02/27 09:53:23;;;;;;;43.70;19.85;;;9.30;89.20;;;;;;5054833;28;20033;-90
2024/02/27 09:55:51;;;;;;;52.53;22.60;;;9.50;89.00;;;;;;5073399;28;20031;-89
2024/02/27 09:58:19;;;;;;;46.72;21.70;;;9.60;86.60;;;;;;4997972;28;20029;-89
2024/02/27 10:00:46;;;;;;;43.42;22.42;;;9.60;86.90;;;;;;4993675;28;20031;-89
2024/02/27 10:03:13;;;;;;;48.72;22.52;;;9.60;86.80;;;;;;4997372;28;20013;-89
2024/02/27 10:05:41;;;;;;;45.30;22.30;;;9.50;87.80;;;;;;4978387;28;20034;-89
2024/02/27 10:08:16;;;;;;;40.10;20.35;;;9.80;87.10;;;;;;4993700;28;20052;-90
2024/02/27 10:10:43;;;;;;;40.47;20.92;;;9.80;86.20;;;;;;4998696;28;20030;-88
2024/02/27 10:13:09;;;;;;;38.30;19.38;;;9.70;85.90;;;;;;5071225;28;20494;-89
2024/02/27 10:15:35;;;;;;;45.97;20.70;;;9.70;87.10;;;;;;5003602;28;20132;-88
2024/02/27 10:18:02;;;;;;;41.38;19.95;;;9.80;86.00;;;;;;4989106;28;20056;-89
2024/02/27 10:20:28;;;;;;;41.10;21.30;;;9.70;85.70;;;;;;5050242;28;20039;-89
2024/02/27 10:22:57;;;;;;;41.85;19.95;;;9.70;86.30;;;;;;5017678;28;20029;-88
2024/02/27 10:25:27;;;;;;;44.92;20.35;;;9.70;86.20;;;;;;5047799;28;20393;-89
2024/02/27 10:27:56;;;;;;;40.20;21.80;;;9.70;86.80;;;;;;4978275;28;20030;-90
2024/02/27 10:30:22;;;;;;;45.20;21.23;;;9.70;86.40;;;;;;5047773;28;20140;-88
2024/02/27 10:32:49;;;;;;;45.92;20.40;;;9.50;86.80;;;;;;4997305;28;20058;-89
2024/02/27 10:35:16;;;;;;;42.15;20.40;;;9.50;87.30;;;;;;5018174;28;20066;-89
2024/02/27 10:37:43;;;;;;;42.42;21.23;;;9.60;87.10;;;;;;4977963;28;20037;-89
2024/02/27 10:40:11;;;;;;;44.75;21.08;;;9.50;86.90;;;;;;5055925;28;20397;-89
2024/02/27 10:42:40;;;;;;;43.78;20.92;;;9.40;87.90;;;;;;4976321;28;20026;-89
2024/02/27 10:45:06;;;;;;;48.38;23.33;;;9.50;86.90;;;;;;5021919;28;20021;-90
2024/02/27 10:47:33;;;;;;;42.47;21.65;;;9.30;87.70;;;;;;5093303;28;20150;-89
2024/02/27 10:50:01;;;;;;;46.55;21.92;;;9.30;87.20;;;;;;4975567;28;20128;-88
2024/02/27 10:52:30;;;;;;;48.97;20.90;;;9.30;87.10;;;;;;4970624;28;20069;-90
2024/02/27 10:54:58;;;;;;;39.92;19.40;;;9.20;87.20;;;;;;5017106;28;20016;-90
2024/02/27 10:57:25;;;;;;;51.33;21.17;;;9.20;87.50;;;;;;4996540;28;20070;-88
2024/02/27 10:59:52;;;;;;;43.47;20.10;;;9.10;87.80;;;;;;4995037;28;20027;-89
2024/02/27 11:02:18;;;;;;;42.53;22.00;;;9.10;88.80;;;;;;4994124;28;20031;-90
2024/02/27 11:04:49;;;;;;;40.90;19.85;;;9.20;87.80;;;;;;4994839;28;20038;-89
2024/02/27 11:07:16;;;;;;;42.25;20.10;;;9.30;87.90;;;;;;4959520;28;20110;-88
2024/02/27 11:09:44;;;;;;;41.53;20.25;;;9.40;87.30;;;;;;4964710;28;20478;-90
2024/02/27 11:12:10;;;;;;;;;;;9.60;86.90;;;;;;5014985;28;20031;-90
2024/02/27 11:14:41;;;;;;;44.63;20.38;;;9.70;87.00;;;;;;4963779;28;19912;-89
2024/02/27 11:17:22;;;;;;;41.67;19.25;;;9.70;86.00;;;;;;4966947;28;20030;-90
2024/02/27 11:19:50;;;;;;;38.85;18.98;;;9.80;86.40;;;;;;4977316;28;20049;-91
2024/02/27 11:22:16;;;;;;;;;;;9.80;85.50;;;;;;5005243;28;20062;-88
2024/02/27 11:24:43;;;;;;;44.35;20.70;;;9.80;84.80;;;;;;5018063;28;19906;-89
2024/02/27 11:27:10;;;;;;;44.95;19.73;;;10.00;85.70;;;;;;5010605;28;20087;-89
2024/02/27 11:29:35;;;;;;;46.17;20.35;;;10.10;83.80;;;;;;5010736;28;20099;-90
2024/02/27 11:32:02;;;;;;;38.65;17.75;;;10.10;83.90;;;;;;4974138;28;20073;-88
2024/02/27 11:34:34;;;;;;;44.88;20.50;;;10.20;83.50;;;;;;5017331;28;20031;-90
2024/02/27 11:37:20;;;;;;;32.70;18.13;;;10.20;82.40;;;;;;5010418;28;20497;-89
2024/02/27 11:39:47;;;;;;;41.92;18.85;;;10.40;82.70;;;;;;4975617;28;20033;-89
2024/02/27 11:42:40;;;;;;;37.10;18.83;;;10.80;81.50;;;;;;5016886;28;20536;-89
2024/02/27 11:45:25;;;;;;;44.40;22.42;;;11.00;79.80;;;;;;5052531;28;20055;-90
2024/02/27 11:47:52;;;;;;;40.95;22.05;;;10.80;78.40;;;;;;5057634;28;20017;-92
2024/02/27 11:50:36;;;;;;;39.08;20.15;;;10.70;79.30;;;;;;4968254;28;20030;-89
2024/02/27 11:53:30;;;;;;;40.17;19.65;;;10.70;79.60;;;;;;5014707;28;20027;-88
2024/02/27 11:55:57;;;;;;;38.58;21.27;;;10.80;79.60;;;;;;5018488;28;20024;-90
2024/02/27 11:58:22;;;;;;;38.28;19.15;;;11.00;79.20;;;;;;5016811;28;20035;-89
2024/02/27 12:00:50;;;;;;;40.03;18.27;;;11.00;78.60;;;;;;5060730;28;20067;-90
2024/02/27 12:03:16;;;;;;;;;;;11.20;77.20;;;;;;5005687;28;20393;-89
2024/02/27 12:05:47;;;;;;;38.17;17.38;;;11.40;76.10;;;;;;5016973;28;19907;-89
2024/02/27 12:08:14;;;;;;;37.63;18.10;;;11.60;75.30;;;;;;4963177;28;20054;-88
2024/02/27 12:10:40;;;;;;;;;;;11.60;74.20;;;;;;4963869;28;20031;-89
2024/02/27 12:13:06;;;;;;;34.00;16.30;;;11.60;74.60;;;;;;5015512;28;19921;-90
2024/02/27 12:15:31;;;;;;;39.88;17.83;;;11.40;75.10;;;;;;4967040;28;20030;-89
2024/02/27 12:17:57;;;;;;;35.03;18.45;;;11.50;75.20;;;;;;5006780;28;20027;-89
2024/02/27 12:20:22;;;;;;;35.40;17.17;;;11.60;73.90;;;;;;4960210;28;20027;-90
2024/02/27 12:22:50;;;;;;;34.28;17.35;;;11.60;75.20;;;;;;5006688;28;20027;-89
2024/02/27 12:25:16;;;;;;;;;;;11.60;74.70;;;;;;5017460;28;20029;-89
2024/02/27 12:27:43;;;;;;;35.63;17.15;;;11.60;75.60;;;;;;5005701;28;19905;-89
2024/02/27 12:30:12;;;;;;;40.47;19.13;;;11.60;74.50;;;;;;5017360;28;20366;-89
2024/02/27 12:32:42;;;;;;;36.20;17.85;;;11.40;74.40;;;;;;5009277;28;20041;-91
2024/02/27 12:35:10;;;;;;;40.45;17.77;;;11.30;75.40;;;;;;4982946;28;20099;-89
2024/02/27 12:37:39;;;;;;;;;;;11.40;76.10;;;;;;5002119;28;20148;-88
2024/02/27 12:40:13;;;;;;;34.65;17.73;;;11.30;75.90;;;;;;5049350;28;20412;-90
2024/02/27 12:42:44;;;;;;;34.65;17.17;;;11.20;76.50;;;;;;4965130;28;20024;-87